Time;durP1;ratioP1;P1;durP2;ratioP2;P2;SDS_P1;SDS_P2;PMS_P1;PMS_P2;Temp;Humidity;BMP_temperature;BMP_pressure;BME280_temperature;BME280_humidity;BME280_pressure;Samples;Min_cycle;Max_cycle;Signal;HPM_P1;HPM_P2
2023/10/02 00:01:59;;;;;;;;;8.60;6.60;;;;;17.90;66.92;100390.19;5098133;28;8818;-58
2023/10/02 00:04:26;;;;;;;;;7.00;6.40;;;;;17.81;67.37;100394.66;5097827;28;8818;-58
2023/10/02 00:07:06;;;;;;;;;6.40;6.00;;;;;17.72;67.31;100403.69;5097877;28;9508;-58
2023/10/02 00:09:34;;;;;;;;;6.00;3.80;;;;;17.60;67.15;100410.28;5110327;28;8823;-57
2023/10/02 00:12:01;;;;;;;;;7.00;6.00;;;;;17.51;67.89;100404.97;5078031;28;8844;-58
2023/10/02 00:14:35;;;;;;;;;7.20;5.60;;;;;17.42;68.02;100401.38;5077930;28;8869;-59
2023/10/02 00:17:07;;;;;;;;;8.20;7.00;;;;;17.33;67.81;100407.63;5077936;28;9500;-58
2023/10/02 00:19:36;;;;;;;;;9.40;8.60;;;;;17.23;68.08;100401.50;5077638;28;8834;-60
2023/10/02 00:22:05;;;;;;;;;6.00;5.20;;;;;17.16;68.40;100411.19;5077530;28;8826;-58
2023/10/02 00:24:35;;;;;;;;;5.20;4.00;;;;;17.09;68.61;100410.09;5077948;28;8819;-59
2023/10/02 00:27:03;;;;;;;;;7.80;6.00;;;;;17.01;68.84;100412.69;5086920;28;8977;-60
2023/10/02 00:29:31;;;;;;;;;7.00;6.00;;;;;16.92;68.75;100410.91;5098554;28;8999;-60
2023/10/02 00:31:58;;;;;;;;;7.00;6.20;;;;;16.85;68.75;100414.38;5097032;28;8876;-58
2023/10/02 00:34:32;;;;;;;;;7.80;6.60;;;;;16.77;69.26;100412.41;5097824;28;8849;-58
2023/10/02 00:37:00;;;;;;;;;4.40;4.00;;;;;16.69;69.16;100406.94;5097960;28;8910;-59
2023/10/02 00:39:31;;;;;;;;;6.40;6.40;;;;;16.63;69.72;100404.84;5098042;28;8821;-58
2023/10/02 00:42:15;;;;;;;;;9.00;8.20;;;;;16.56;69.77;100405.59;5097354;28;8825;-58
2023/10/02 00:44:52;;;;;;;;;6.60;6.00;;;;;16.49;69.70;100416.06;5097208;28;9612;-57
2023/10/02 00:47:35;;;;;;;;;3.20;2.60;;;;;16.45;69.92;100417.38;5097154;28;8852;-58
2023/10/02 00:50:06;;;;;;;;;8.60;6.40;;;;;16.40;69.57;100425.03;5097083;28;8829;-58
2023/10/02 00:52:35;;;;;;;;;8.80;6.80;;;;;16.35;70.06;100421.06;5096642;28;8844;-57
2023/10/02 00:55:05;;;;;;;;;6.00;6.00;;;;;16.30;69.94;100410.75;5097537;28;8919;-59
2023/10/02 00:57:35;;;;;;;;;5.20;3.80;;;;;16.28;69.66;100420.81;5096444;28;8856;-58
2023/10/02 01:00:06;;;;;;;;;7.00;6.00;;;;;16.26;69.81;100417.41;5096925;28;8852;-60
2023/10/02 01:02:35;;;;;;;;;4.00;4.00;;;;;16.24;70.03;100407.78;5096535;28;8845;-58
2023/10/02 01:05:04;;;;;;;;;3.60;3.20;;;;;16.20;69.88;100414.47;5097077;28;8810;-58
2023/10/02 01:07:34;;;;;;;;;6.00;6.00;;;;;16.17;70.19;100410.22;5096664;28;8834;-57
2023/10/02 01:10:08;;;;;;;;;7.50;7.50;;;;;16.13;70.49;100409.81;5096467;28;8849;-58
2023/10/02 01:12:43;;;;;;;;;6.50;6.25;;;;;16.10;70.08;100402.91;5097048;28;8820;-58
2023/10/02 01:15:12;;;;;;;;;7.25;5.75;;;;;16.07;70.27;100413.09;5097760;28;9272;-58
2023/10/02 01:17:40;;;;;;;;;7.00;5.00;;;;;16.02;70.32;100410.84;5107570;28;8806;-58
2023/10/02 01:20:12;;;;;;;;;3.75;3.75;;;;;15.99;70.53;100412.97;5097045;28;8903;-58
2023/10/02 01:22:42;;;;;;;;;6.50;6.00;;;;;15.96;70.40;100411.41;5096685;28;8894;-58
2023/10/02 01:25:13;;;;;;;;;9.00;7.00;;;;;15.96;70.65;100407.88;5096740;28;8849;-58
2023/10/02 01:27:46;;;;;;;;;9.25;9.00;;;;;15.95;70.49;100411.56;5097152;28;8837;-58
2023/10/02 01:30:15;;;;;;;;;6.00;5.00;;;;;15.93;71.00;100400.13;5096511;28;8837;-58
2023/10/02 01:32:43;;;;;;;;;9.00;8.00;;;;;15.92;70.65;100403.81;5097138;28;8864;-60
2023/10/02 01:35:11;;;;;;;;;3.00;1.00;;;;;15.90;70.75;100400.38;5096811;28;8837;-58
2023/10/02 01:37:41;;;;;;;;;8.00;7.00;;;;;15.87;70.39;100401.56;5096706;28;8830;-59
2023/10/02 01:42:52;;;;;;;;;4.00;4.00;;;;;15.83;70.61;100401.94;5094067;28;9549;-57
2023/10/02 01:45:20;;;;;;;;;7.50;6.50;;;;;15.80;70.42;100399.56;5095961;28;8834;-58
2023/10/02 01:47:49;;;;;;;;;7.00;6.50;;;;;15.78;70.76;100402.38;5096089;28;8822;-58
2023/10/02 01:50:16;;;;;;;;;8.00;6.25;;;;;15.76;70.52;100403.56;5096183;28;8826;-58
2023/10/02 01:52:45;;;;;;;;;11.00;8.00;;;;;15.74;70.57;100394.75;5096382;28;8834;-59
2023/10/02 01:55:29;;;;;;;;;9.00;6.00;;;;;15.71;70.79;100395.06;5096223;28;8822;-58
2023/10/02 01:58:16;;;;;;;;;10.00;9.00;;;;;15.70;70.99;100398.75;5096513;28;9547;-59
2023/10/02 02:00:46;;;;;;;;;4.00;4.00;;;;;15.67;70.87;100388.28;5096041;28;8852;-59
2023/10/02 02:03:17;;;;;;;;;7.00;6.50;;;;;15.64;70.65;100393.94;5096320;28;8830;-58
2023/10/02 02:05:46;;;;;;;;;9.00;6.75;;;;;15.59;71.31;100390.81;5096302;28;8837;-58
2023/10/02 02:08:23;;;;;;;;;7.00;6.00;;;;;15.56;71.08;100386.59;5096133;28;8828;-57
2023/10/02 02:11:14;;;;;;;;;8.00;6.50;;;;;15.52;70.93;100389.69;5095178;28;8809;-57
2023/10/02 02:13:44;;;;;;;;;10.50;7.75;;;;;15.48;71.46;100386.44;5095550;28;8829;-58
2023/10/02 02:16:14;;;;;;;;;4.00;4.00;;;;;15.44;71.55;100390.44;5095658;28;9585;-58
2023/10/02 02:18:43;;;;;;;;;4.00;4.00;;;;;15.40;71.12;100382.81;5106542;28;9513;-57
2023/10/02 02:21:11;;;;;;;;;5.50;4.00;;;;;15.38;71.64;100398.19;5102013;28;8814;-58
2023/10/02 02:23:38;;;;;;;;;5.25;5.00;;;;;15.34;71.47;100388.72;5095709;28;8802;-57
2023/10/02 02:26:08;;;;;;;;;6.75;5.00;;;;;15.31;71.73;100392.53;5095516;28;8912;-58
2023/10/02 02:28:43;;;;;;;;;6.25;6.25;;;;;15.28;71.68;100389.25;5108806;28;8897;-57
2023/10/02 02:31:29;;;;;;;;;7.00;6.00;;;;;15.25;71.66;100384.19;5108909;28;8936;-58
2023/10/02 02:33:57;;;;;;;;;7.00;6.25;;;;;15.22;72.16;100379.06;5098644;28;8814;-57
2023/10/02 02:36:28;;;;;;;;;8.00;8.00;;;;;15.18;71.79;100383.88;5095758;28;8879;-57
2023/10/02 02:39:15;;;;;;;;;4.00;4.00;;;;;15.14;71.85;100390.53;5103808;28;8812;-57
2023/10/02 02:41:43;;;;;;;;;6.00;6.00;;;;;15.12;71.39;100381.78;5103374;28;8821;-58
2023/10/02 02:44:29;;;;;;;;;7.00;6.25;;;;;15.10;72.13;100382.91;5095482;28;8828;-58
2023/10/02 02:46:59;;;;;;;;;6.00;5.00;;;;;15.08;71.87;100390.22;5095441;28;8810;-57
2023/10/02 02:49:29;;;;;;;;;5.50;5.50;;;;;15.03;72.06;100377.22;5094855;28;8837;-57
2023/10/02 02:51:56;;;;;;;;;7.50;6.50;;;;;15.02;72.36;100377.38;5095625;28;8845;-57
2023/10/02 02:54:25;;;;;;;;;8.00;7.00;;;;;15.00;71.97;100376.66;5095115;28;8830;-59
2023/10/02 02:56:56;;;;;;;;;6.00;5.00;;;;;14.97;71.64;100372.44;5095181;28;8822;-57
2023/10/02 02:59:26;;;;;;;;;9.00;7.00;;;;;14.97;72.34;100376.94;5095376;28;8841;-58
2023/10/02 03:02:08;;;;;;;;;11.00;10.75;;;;;14.96;71.90;100370.72;5094895;28;8829;-59
2023/10/02 03:04:37;;;;;;;;;5.75;5.00;;;;;14.95;72.25;100362.84;5094937;28;8810;-58
2023/10/02 03:07:09;;;;;;;;;9.50;7.75;;;;;14.94;72.36;100367.34;5095299;28;8945;-58
2023/10/02 03:09:36;;;;;;;;;9.50;9.00;;;;;14.95;71.71;100362.84;5095278;28;8833;-59
2023/10/02 03:12:05;;;;;;;;;5.00;4.50;;;;;14.95;72.04;100363.66;5095423;28;9514;-58
2023/10/02 03:14:33;;;;;;;;;8.00;8.00;;;;;14.98;72.54;100366.09;5095085;28;8810;-58
2023/10/02 03:17:22;;;;;;;;;9.00;8.00;;;;;14.98;72.24;100367.91;5095455;28;9506;-57
2023/10/02 03:19:49;;;;;;;;;6.25;6.25;;;;;14.99;72.25;100364.22;5095116;28;8826;-59
2023/10/02 03:22:20;;;;;;;;;6.25;6.25;;;;;14.98;72.17;100368.78;5098048;28;8953;-57
2023/10/02 03:24:48;;;;;;;;;10.50;6.75;;;;;14.98;72.08;100360.72;5098874;28;8815;-59
2023/10/02 03:27:15;;;;;;;;;8.00;8.00;;;;;14.99;71.96;100359.72;5099161;28;8838;-58
2023/10/02 03:29:45;;;;;;;;;6.75;6.25;;;;;14.97;71.49;100361.72;5099162;28;8856;-57
2023/10/02 03:32:12;;;;;;;;;10.50;9.25;;;;;14.97;72.15;100359.03;5098737;28;8818;-57
2023/10/02 03:34:40;;;;;;;;;9.00;7.00;;;;;14.95;72.34;100360.16;5098515;28;8845;-58
2023/10/02 03:37:14;;;;;;;;;9.50;8.00;;;;;14.93;71.51;100367.47;5078557;28;8828;-57
2023/10/02 03:39:59;;;;;;;;;7.00;7.00;;;;;14.91;71.88;100367.63;5078537;28;8836;-58
2023/10/02 03:42:31;;;;;;;;;11.00;9.50;;;;;14.88;72.05;100357.16;5073590;28;8814;-57
2023/10/02 03:44:59;;;;;;;;;7.50;6.75;;;;;14.85;72.41;100362.81;5059382;28;8830;-57
2023/10/02 03:47:27;;;;;;;;;6.25;5.50;;;;;14.83;72.25;100361.25;5085770;28;8814;-57
2023/10/02 03:50:00;;;;;;;;;7.00;6.50;;;;;14.80;71.84;100364.22;5097892;28;8891;-58
2023/10/02 03:52:30;;;;;;;;;6.25;6.25;;;;;14.79;72.56;100362.53;5078279;28;8828;-57
2023/10/02 03:55:02;;;;;;;;;6.00;3.50;;;;;14.77;72.30;100356.44;5078170;28;8832;-57
2023/10/02 03:57:47;;;;;;;;;5.50;4.00;;;;;14.76;72.47;100357.44;5078054;28;8836;-59
2023/10/02 04:00:18;;;;;;;;;1.50;0.25;;;;;14.74;72.39;100354.03;5078637;28;8824;-57
2023/10/02 04:02:47;;;;;;;;;6.75;6.00;;;;;14.72;72.25;100351.50;5084304;28;8895;-57
2023/10/02 04:05:30;;;;;;;;;5.50;4.00;;;;;14.70;72.40;100349.94;5098228;28;8950;-57
2023/10/02 04:08:12;;;;;;;;;3.25;2.00;;;;;14.68;72.40;100349.22;5098134;28;8875;-57
2023/10/02 04:10:51;;;;;;;;;9.00;7.50;;;;;14.66;72.19;100351.22;5098315;28;8837;-57
2023/10/02 04:13:20;;;;;;;;;10.25;9.75;;;;;14.63;72.94;100340.78;5097853;28;8840;-57
2023/10/02 04:15:48;;;;;;;;;7.50;7.50;;;;;14.61;72.34;100343.56;5098314;28;9564;-60
2023/10/02 04:18:45;;;;;;;;;6.00;6.00;;;;;14.60;72.85;100335.66;5098148;28;8959;-57
2023/10/02 04:21:09;;;;;;;;;7.00;7.00;;;;;14.56;72.49;100327.06;5097938;28;8821;-58
2023/10/02 04:23:42;;;;;;;;;9.00;9.00;;;;;14.55;72.50;100327.19;5097484;28;8837;-57
2023/10/02 04:26:09;;;;;;;;;9.00;9.00;;;;;14.55;72.79;100332.53;5097835;28;8821;-57
2023/10/02 04:28:49;;;;;;;;;4.00;3.00;;;;;14.56;72.88;100331.59;5097927;28;8869;-57
2023/10/02 04:31:20;;;;;;;;;6.50;4.00;;;;;14.55;72.62;100333.41;5098254;28;8874;-60
2023/10/02 04:33:52;;;;;;;;;10.50;8.50;;;;;14.55;72.86;100332.53;5096291;28;8833;-60
2023/10/02 04:36:31;;;;;;;;;10.00;9.00;;;;;14.56;72.76;100323.53;5097602;28;8833;-60
2023/10/02 04:38:58;;;;;;;;;7.50;6.50;;;;;14.55;72.45;100322.69;5097343;28;8834;-59
2023/10/02 04:41:28;;;;;;;;;7.00;6.25;;;;;14.55;72.57;100327.19;5097335;28;8834;-60
2023/10/02 04:43:58;;;;;;;;;7.00;6.50;;;;;14.53;72.72;100327.34;5097273;28;8818;-60
2023/10/02 04:46:25;;;;;;;;;4.00;4.00;;;;;14.52;72.39;100332.81;5097272;28;8838;-59
2023/10/02 04:48:59;;;;;;;;;8.50;7.00;;;;;14.50;72.98;100329.44;5115819;28;8808;-59
2023/10/02 04:51:28;;;;;;;;;9.75;8.50;;;;;14.50;72.38;100334.81;5110727;28;8837;-57
2023/10/02 04:53:57;;;;;;;;;6.50;6.00;;;;;14.49;72.25;100330.44;5113419;28;8820;-58
2023/10/02 04:56:25;;;;;;;;;5.00;3.50;;;;;14.52;72.23;100333.69;5108433;28;8826;-57
2023/10/02 04:58:57;;;;;;;;;5.50;5.50;;;;;14.53;72.35;100326.47;5096999;28;8830;-57
2023/10/02 05:01:25;;;;;;;;;8.00;7.00;;;;;14.54;72.59;100317.44;5097075;28;9525;-59
2023/10/02 05:03:53;;;;;;;;;6.50;6.50;;;;;14.54;72.37;100317.44;5096758;28;8811;-59
2023/10/02 05:11:52;;;;;;;;;8.00;7.00;;;;;14.48;72.87;100320.72;5093743;28;8861;-57
2023/10/02 05:14:26;;;;;;;;;9.00;7.75;;;;;14.45;72.98;100320.97;5056334;28;8969;-58
2023/10/02 05:16:56;;;;;;;;;9.25;9.00;;;;;14.44;72.72;100324.63;5056116;28;8862;-58
2023/10/02 05:19:56;;;;;;;;;8.00;6.00;;;;;14.41;72.98;100317.72;5056009;28;8907;-58
2023/10/02 05:22:24;;;;;;;;;9.00;6.50;;;;;14.40;72.94;100316.00;5056175;28;9468;-57
2023/10/02 05:24:58;;;;;;;;;8.00;6.75;;;;;14.39;72.49;100327.72;5055546;28;8927;-57
2023/10/02 05:27:29;;;;;;;;;6.00;4.00;;;;;14.38;72.98;100323.34;5056075;28;8874;-59
2023/10/02 05:29:58;;;;;;;;;10.25;9.25;;;;;14.36;73.18;100327.97;5055682;28;8826;-58
2023/10/02 05:32:29;;;;;;;;;3.50;3.00;;;;;14.34;73.23;100324.59;5055414;28;8834;-57
2023/10/02 05:35:06;;;;;;;;;9.50;8.00;;;;;14.31;72.82;100330.22;5056011;28;9642;-58
2023/10/02 05:37:39;;;;;;;;;6.25;6.25;;;;;14.30;73.58;100338.41;5055831;28;9524;-59
2023/10/02 05:43:09;;;;;;;;;3.00;2.50;;;;;14.27;72.82;100344.88;5055186;28;8846;-56
2023/10/02 05:45:39;;;;;;;;;7.00;7.00;;;;;14.27;72.93;100344.03;5054256;28;8822;-57
2023/10/02 05:48:08;;;;;;;;;8.00;8.00;;;;;14.27;73.24;100344.03;5055882;28;8826;-57
2023/10/02 05:50:37;;;;;;;;;5.00;5.00;;;;;14.30;73.08;100343.75;5091005;28;8826;-57
2023/10/02 05:53:06;;;;;;;;;11.00;9.50;;;;;14.32;72.84;100341.78;5095001;28;8882;-57
2023/10/02 05:55:56;;;;;;;;;11.50;6.25;;;;;14.34;72.95;100347.88;5090159;28;8828;-58
2023/10/02 05:58:27;;;;;;;;;6.00;3.50;;;;;14.37;72.32;100348.44;5061760;28;8831;-56
2023/10/02 06:00:55;;;;;;;;;9.75;9.75;;;;;14.41;72.79;100351.72;5053595;28;8835;-57
2023/10/02 06:03:23;;;;;;;;;8.00;7.75;;;;;14.43;72.76;100349.72;5056026;28;9664;-56
2023/10/02 06:08:33;;;;;;;;;7.00;6.50;;;;;14.53;72.60;100355.97;5085340;28;8815;-58
2023/10/02 06:11:08;;;;;;;;;8.00;7.00;;;;;14.57;72.13;100358.22;5108944;28;8839;-57
2023/10/02 06:13:37;;;;;;;;;9.00;8.50;;;;;14.60;72.26;100357.97;5093872;28;8836;-58
2023/10/02 06:16:07;;;;;;;;;2.25;0.75;;;;;14.64;72.33;100370.09;5094395;28;8833;-58
2023/10/02 06:18:38;;;;;;;;;8.50;6.75;;;;;14.69;72.07;100365.19;5094593;28;8829;-59
2023/10/02 06:21:06;;;;;;;;;4.00;4.00;;;;;14.74;71.90;100370.13;5094964;28;8837;-57
2023/10/02 06:23:38;;;;;;;;;6.50;5.50;;;;;14.78;72.19;100367.03;5094510;28;8828;-59
2023/10/02 06:26:06;;;;;;;;;6.50;6.00;;;;;14.83;71.90;100371.97;5095021;28;8873;-57
2023/10/02 06:28:35;;;;;;;;;6.25;6.25;;;;;14.88;72.22;100367.06;5094973;28;8853;-57
2023/10/02 06:31:06;;;;;;;;;6.25;6.00;;;;;14.94;71.94;100369.19;5094456;28;8841;-58
2023/10/02 06:33:36;;;;;;;;;8.50;7.00;;;;;15.01;71.83;100367.66;5095034;28;8837;-57
2023/10/02 06:36:05;;;;;;;;;8.00;7.50;;;;;15.07;71.27;100377.78;5094529;28;8829;-58
2023/10/02 06:38:33;;;;;;;;;7.00;6.00;;;;;15.12;71.86;100376.41;5094113;28;8832;-57
2023/10/02 06:41:01;;;;;;;;;9.00;8.50;;;;;15.20;71.50;100373.00;5094661;28;9607;-58
2023/10/02 06:43:32;;;;;;;;;12.00;10.75;;;;;15.27;71.46;100366.09;5094403;28;8837;-57
2023/10/02 06:46:06;;;;;;;;;9.00;8.50;;;;;15.36;71.45;100373.31;5094013;28;8910;-57
2023/10/02 06:48:35;;;;;;;;;5.25;5.00;;;;;15.43;71.34;100374.44;5094356;28;8832;-58
2023/10/02 06:51:04;;;;;;;;;8.25;7.00;;;;;15.52;71.04;100365.53;5093993;28;8921;-58
2023/10/02 06:53:32;;;;;;;;;10.00;8.50;;;;;15.64;70.27;100364.41;5094120;28;8921;-56
2023/10/02 06:56:10;;;;;;;;;8.50;6.50;;;;;15.74;70.15;100362.53;5093306;28;8837;-58
2023/10/02 06:58:48;;;;;;;;;6.00;6.00;;;;;15.86;70.37;100364.91;5093874;28;8934;-57
2023/10/02 07:01:18;;;;;;;;;6.50;6.50;;;;;15.96;70.27;100373.81;5093642;28;8946;-57
2023/10/02 07:03:50;;;;;;;;;5.50;3.50;;;;;16.06;69.62;100363.88;5093126;28;8895;-58
2023/10/02 07:06:20;;;;;;;;;9.50;8.50;;;;;16.18;69.60;100366.22;5079618;28;8820;-57
2023/10/02 07:09:08;;;;;;;;;11.00;8.50;;;;;16.30;69.32;100350.75;5073194;28;8848;-58
2023/10/02 07:11:36;;;;;;;;;6.25;6.00;;;;;16.43;69.12;100351.31;5073734;28;8909;-58
2023/10/02 07:14:06;;;;;;;;;10.00;9.50;;;;;16.53;69.29;100354.78;5060907;28;8802;-57
2023/10/02 07:16:34;;;;;;;;;9.50;7.50;;;;;16.64;69.02;100352.75;5066958;28;8987;-57
2023/10/02 07:19:02;;;;;;;;;9.75;7.00;;;;;16.75;68.55;100344.47;5093341;28;8841;-57
2023/10/02 07:21:32;;;;;;;;;9.00;8.50;;;;;16.88;68.27;100341.41;5084998;28;8813;-58
2023/10/02 07:24:01;;;;;;;;;9.50;6.50;;;;;17.03;68.07;100350.66;5074483;28;8840;-58
2023/10/02 07:29:10;;;;;;;;;9.25;9.00;;;;;17.34;67.63;100349.28;5072990;28;8982;-58
2023/10/02 07:31:44;;;;;;;;;8.60;8.60;;;;;17.46;67.47;100356.16;5073374;28;8844;-58
2023/10/02 07:34:12;;;;;;;;;11.80;9.60;;;;;17.54;67.36;100357.03;5085811;28;8903;-59
2023/10/02 07:36:44;;;;;;;;;9.00;8.20;;;;;17.57;67.66;100351.38;5093866;28;8822;-57
2023/10/02 07:39:35;;;;;;;;;9.60;9.00;;;;;17.63;67.35;100348.03;5093569;28;8849;-57
2023/10/02 07:42:01;;;;;;;;;9.00;7.00;;;;;17.81;67.58;100348.84;5093346;28;8907;-58
2023/10/02 07:44:36;;;;;;;;;8.40;7.40;;;;;18.03;67.35;100348.31;5093563;28;8896;-58
2023/10/02 07:47:10;;;;;;;;;9.00;7.80;;;;;18.20;66.71;100349.22;5093331;28;8833;-58
2023/10/02 07:49:39;;;;;;;;;7.40;6.60;;;;;18.31;66.97;100349.88;5093169;28;8822;-57
2023/10/02 07:52:11;;;;;;;;;7.40;7.40;;;;;18.41;66.65;100342.47;5092820;28;8964;-57
2023/10/02 07:54:48;;;;;;;;;11.60;10.00;;;;;18.51;66.26;100343.19;5092942;28;8825;-57
2023/10/02 07:57:18;;;;;;;;;9.20;6.20;;;;;18.60;66.46;100335.97;5093219;28;8838;-57
2023/10/02 07:59:49;;;;;;;;;9.20;7.40;;;;;18.67;66.48;100342.41;5092478;28;8898;-58
2023/10/02 08:02:23;;;;;;;;;5.60;5.60;;;;;18.74;66.55;100328.09;5093078;28;9539;-58
2023/10/02 08:04:51;;;;;;;;;6.20;6.00;;;;;18.89;65.67;100337.25;5093358;28;8840;-59
2023/10/02 08:07:20;;;;;;;;;10.00;10.00;;;;;19.09;65.78;100327.84;5093321;28;8836;-57
2023/10/02 08:10:05;;;;;;;;;4.00;3.00;;;;;19.39;65.47;100329.94;5096595;28;8828;-58
2023/10/02 08:12:34;;;;;;;;;6.20;6.20;;;;;19.67;64.97;100327.72;5096779;28;8830;-57
2023/10/02 08:15:03;;;;;;;;;10.40;9.20;;;;;19.90;64.04;100329.56;5096907;28;8882;-60
2023/10/02 08:20:20;;;;;;;;;6.40;5.40;;;;;20.35;63.97;100328.94;5110765;28;8836;-59
2023/10/02 08:22:51;;;;;;;;;6.60;6.60;;;;;20.57;63.32;100322.75;5098385;28;8928;-60
2023/10/02 08:25:23;;;;;;;;;7.40;6.20;;;;;20.83;63.37;100326.84;5095694;28;8826;-58
2023/10/02 08:27:55;;;;;;;;;7.40;5.40;;;;;21.08;62.47;100321.16;5095097;28;8953;-57
2023/10/02 08:30:31;;;;;;;;;7.20;7.20;;;;;21.36;62.13;100326.88;5106313;28;8832;-58
2023/10/02 08:33:05;;;;;;;;;8.00;6.20;;;;;21.62;61.83;100322.75;5095053;28;8859;-59
2023/10/02 08:35:54;;;;;;;;;9.00;7.60;;;;;21.87;61.29;100324.22;5074086;28;8856;-59
2023/10/02 08:38:22;;;;;;;;;7.00;5.40;;;;;22.08;61.13;100324.34;5075112;28;8832;-56
2023/10/02 08:40:57;;;;;;;;;11.40;8.00;;;;;22.24;60.82;100321.44;5075381;28;8858;-58
2023/10/02 08:43:25;;;;;;;;;9.80;8.00;;;;;22.37;60.53;100323.50;5074143;28;8859;-57
2023/10/02 08:45:53;;;;;;;;;8.80;8.40;;;;;22.43;60.62;100322.78;5078810;28;9749;-57
2023/10/02 08:48:22;;;;;;;;;10.20;9.80;;;;;22.45;60.60;100321.56;5094813;28;8864;-58
2023/10/02 08:50:50;;;;;;;;;9.60;8.20;;;;;22.46;61.00;100319.72;5095448;28;8840;-57
2023/10/02 08:53:22;;;;;;;;;11.40;9.80;;;;;22.46;60.73;100320.53;5095205;28;8853;-58
2023/10/02 08:55:54;;;;;;;;;9.00;6.40;;;;;22.48;61.00;100313.03;5095222;28;9487;-57
2023/10/02 08:58:25;;;;;;;;;3.60;3.60;;;;;22.47;60.90;100311.34;5094990;28;8895;-57
2023/10/02 09:01:06;;;;;;;;;7.20;6.20;;;;;22.50;60.98;100307.44;5095475;28;8837;-57
2023/10/02 09:03:41;;;;;;;;;8.00;6.20;;;;;22.53;60.66;100312.50;5095544;28;9002;-58
2023/10/02 09:06:28;;;;;;;;;9.40;8.40;;;;;22.58;60.69;100310.03;5095257;28;8810;-58
2023/10/02 09:09:16;;;;;;;;;9.60;9.00;;;;;22.66;60.71;100302.63;5095469;28;8830;-58
2023/10/02 09:11:44;;;;;;;;;8.00;6.60;;;;;22.75;60.93;100306.06;5095872;28;9393;-57
2023/10/02 09:14:21;;;;;;;;;8.20;5.40;;;;;22.83;60.34;100304.09;5094872;28;8838;-57
2023/10/02 09:16:48;;;;;;;;;8.00;6.80;;;;;22.92;59.90;100302.09;5094800;28;8960;-58
2023/10/02 09:19:34;;;;;;;;;7.20;7.20;;;;;22.99;59.92;100298.41;5094323;28;8846;-60
2023/10/02 09:22:07;;;;;;;;;9.20;8.80;;;;;23.02;59.91;100300.75;5094388;28;8834;-58
2023/10/02 09:24:38;;;;;;;;;9.20;9.00;;;;;23.10;59.92;100299.78;5074215;28;8832;-57
2023/10/02 09:30:15;;;;;;;;;10.40;6.80;;;;;23.19;59.98;100298.66;5055026;28;8893;-57
2023/10/02 09:32:47;;;;;;;;;8.40;8.00;;;;;23.25;59.49;100296.00;5070479;28;8836;-57
2023/10/02 09:35:21;;;;;;;;;9.40;8.60;;;;;23.35;59.47;100298.38;5054606;28;8840;-58
2023/10/02 09:38:10;;;;;;;;;9.80;8.60;;;;;23.49;59.47;100289.31;5054537;28;8924;-58
2023/10/02 09:43:24;;;;;;;;;9.00;8.20;;;;;23.75;58.79;100284.09;5053855;28;8851;-57
2023/10/02 09:45:53;;;;;;;;;7.20;7.20;;;;;23.87;58.65;100279.81;5062062;28;8824;-58
2023/10/02 09:51:06;;;;;;;;;6.00;5.60;;;;;24.43;57.22;100267.81;5057073;28;9737;-58
2023/10/02 09:53:34;;;;;;;;;8.60;8.40;;;;;24.98;56.62;100264.88;5071468;28;9504;-58
2023/10/02 09:56:02;;;;;;;;;6.60;6.00;;;;;25.69;55.67;100263.06;5071233;28;8862;-58
2023/10/02 09:58:30;;;;;;;;;7.00;6.40;;;;;26.30;54.20;100256.25;5093202;28;8864;-58
2023/10/02 10:00:59;;;;;;;;;9.40;7.00;;;;;26.72;54.22;100261.16;5076893;28;8816;-58
2023/10/02 10:03:32;;;;;;;;;6.60;6.60;;;;;27.10;53.39;100259.22;5074306;28;8844;-58
2023/10/02 10:06:05;;;;;;;;;12.40;10.00;;;;;27.48;53.01;100262.78;5092924;28;8853;-58
2023/10/02 10:08:33;;;;;;;;;8.20;7.00;;;;;27.88;52.52;100266.88;5092607;28;8968;-58
2023/10/02 10:11:14;;;;;;;;;8.40;6.60;;;;;28.33;50.95;100251.88;5093440;28;8834;-57
2023/10/02 10:13:46;;;;;;;;;10.40;7.40;;;;;28.69;50.47;100257.34;5073129;28;8832;-58
2023/10/02 10:16:18;;;;;;;;;9.20;8.00;;;;;28.79;50.81;100252.13;5073381;28;8883;-58
2023/10/02 10:18:47;;;;;;;;;11.20;11.00;;;;;28.65;51.04;100256.13;5073701;28;8897;-57
2023/10/02 10:21:15;;;;;;;;;9.00;7.00;;;;;28.43;51.75;100257.66;5073939;28;8906;-57
2023/10/02 10:23:45;;;;;;;;;7.00;6.20;;;;;28.36;51.91;100251.41;5073498;28;8844;-59
2023/10/02 10:26:11;;;;;;;;;6.60;6.00;;;;;28.50;52.06;100241.13;5074237;28;8856;-58
2023/10/02 10:28:50;;;;;;;;;7.40;6.00;;;;;28.78;51.07;100245.00;5073450;28;8975;-59
2023/10/02 10:31:20;;;;;;;;;9.80;8.60;;;;;29.02;50.53;100229.47;5072934;28;8852;-58
2023/10/02 10:33:47;;;;;;;;;8.60;7.60;;;;;29.31;49.96;100228.59;5073362;28;8917;-58
2023/10/02 10:36:17;;;;;;;;;9.40;8.40;;;;;29.59;49.63;100221.38;5073524;28;8921;-58
2023/10/02 10:38:49;;;;;;;;;8.80;8.40;;;;;29.73;49.32;100228.31;5073150;28;8843;-58
2023/10/02 10:41:17;;;;;;;;;5.60;4.20;;;;;29.79;49.80;100227.34;5072550;28;9562;-58
2023/10/02 10:43:44;;;;;;;;;8.00;6.20;;;;;29.68;49.93;100217.22;5071998;28;8840;-58
2023/10/02 10:46:14;;;;;;;;;7.00;6.20;;;;;29.59;49.96;100210.38;5072927;28;8852;-58
2023/10/02 10:48:45;;;;;;;;;8.00;5.00;;;;;29.61;49.32;100213.75;5081452;28;8837;-58
2023/10/02 10:51:22;;;;;;;;;9.60;8.00;;;;;29.61;50.05;100211.00;5093605;28;8825;-58
2023/10/02 10:53:52;;;;;;;;;9.00;7.20;;;;;29.41;50.43;100207.72;5096882;28;8974;-58
2023/10/02 10:56:22;;;;;;;;;9.40;8.20;;;;;29.18;50.71;100207.69;5106635;28;8826;-58
2023/10/02 10:58:51;;;;;;;;;11.00;8.40;;;;;28.92;50.82;100208.06;5093423;28;8854;-59
2023/10/02 11:01:20;;;;;;;;;9.20;7.80;;;;;28.81;51.00;100213.53;5104577;28;8834;-57
2023/10/02 11:03:54;;;;;;;;;7.00;7.00;;;;;28.66;51.42;100213.91;5100972;28;8929;-58
2023/10/02 11:06:22;;;;;;;;;6.00;5.00;;;;;28.55;51.65;100211.13;5110452;28;8808;-59
2023/10/02 11:08:50;;;;;;;;;5.20;5.20;;;;;28.44;52.28;100217.41;5112785;28;9521;-57
2023/10/02 11:11:21;;;;;;;;;8.40;8.00;;;;;28.37;51.95;100213.91;5112415;28;8840;-59
2023/10/02 11:13:53;;;;;;;;;9.00;7.80;;;;;28.34;51.58;100220.66;5110945;28;8831;-58
2023/10/02 11:16:21;;;;;;;;;7.40;7.20;;;;;28.40;51.45;100230.72;5104214;28;8987;-58
2023/10/02 11:18:49;;;;;;;;;6.80;6.20;;;;;28.51;51.23;100220.91;5092742;28;8822;-58
2023/10/02 11:21:21;;;;;;;;;7.00;6.80;;;;;28.60;50.84;100222.25;5093322;28;8936;-58
2023/10/02 11:23:49;;;;;;;;;10.60;9.60;;;;;28.70;50.95;100217.88;5092610;28;8877;-58
2023/10/02 11:26:21;;;;;;;;;9.80;8.80;;;;;28.91;50.90;100216.53;5109372;28;9003;-58
2023/10/02 11:28:50;;;;;;;;;11.20;9.60;;;;;29.32;49.30;100209.16;5100921;28;8828;-58
2023/10/02 11:31:30;;;;;;;;;4.40;4.20;;;;;29.80;48.79;100204.31;5101167;28;8826;-58
2023/10/02 11:33:58;;;;;;;;;5.00;4.00;;;;;30.43;47.92;100213.44;5104663;28;8938;-59
2023/10/02 11:36:46;;;;;;;;;7.80;6.60;;;;;31.17;46.21;100205.00;5104094;28;8850;-58
2023/10/02 11:39:16;;;;;;;;;7.60;7.60;;;;;32.03;45.36;100202.59;5110316;28;8864;-58
2023/10/02 11:41:44;;;;;;;;;4.20;3.80;;;;;32.74;43.81;100207.94;5093714;28;8821;-58
2023/10/02 11:44:12;;;;;;;;;5.60;5.00;;;;;33.15;42.76;100201.75;5096710;28;8864;-58
2023/10/02 11:46:40;;;;;;;;;4.40;4.40;;;;;33.29;42.80;100194.75;5098960;28;8839;-58
2023/10/02 11:49:10;;;;;;;;;7.40;5.20;;;;;33.42;43.20;100184.06;5098489;28;8826;-58
2023/10/02 11:51:38;;;;;;;;;4.00;4.00;;;;;33.43;43.08;100180.22;5117920;28;8828;-58
2023/10/02 11:54:09;;;;;;;;;4.20;4.20;;;;;33.48;42.79;100179.41;5112207;28;8843;-58
2023/10/02 11:56:38;;;;;;;;;8.00;5.40;;;;;33.73;42.63;100180.44;5097346;28;8842;-58
2023/10/02 11:59:06;;;;;;;;;5.00;4.00;;;;;34.03;42.58;100177.03;5096407;28;8844;-58
2023/10/02 12:01:37;;;;;;;;;7.40;5.80;;;;;34.38;41.50;100172.56;5097190;28;8837;-58
2023/10/02 12:04:05;;;;;;;;;8.00;7.40;;;;;34.78;41.20;100177.38;5097119;28;8842;-58
2023/10/02 12:06:33;;;;;;;;;6.60;4.80;;;;;34.98;40.77;100172.75;5097396;28;8856;-60
2023/10/02 12:09:01;;;;;;;;;6.40;6.00;;;;;35.11;40.73;100176.91;5096245;28;9487;-58
2023/10/02 12:11:29;;;;;;;;;6.60;5.80;;;;;35.33;40.33;100161.69;5085335;28;8832;-58
2023/10/02 12:13:59;;;;;;;;;5.20;4.60;;;;;35.43;40.39;100171.94;5076400;28;8854;-59
2023/10/02 12:16:27;;;;;;;;;5.00;4.00;;;;;35.42;40.43;100165.56;5076053;28;8843;-59
2023/10/02 12:18:54;;;;;;;;;4.20;3.60;;;;;35.46;40.24;100163.06;5075838;28;8856;-59
2023/10/02 12:21:22;;;;;;;;;6.60;6.00;;;;;35.34;41.06;100162.53;5075366;28;8844;-61